createdAt,value
2022-10-04T00:00:41.703Z,12.20
2022-10-04T00:03:12.924Z,12.09
2022-10-04T00:05:41.653Z,11.85
2022-10-04T00:08:26.133Z,11.95
2022-10-04T00:11:33.795Z,12.18
2022-10-04T00:14:05.472Z,11.86
2022-10-04T00:16:38.919Z,11.71
2022-10-04T00:19:16.317Z,11.84
2022-10-04T00:21:53.621Z,12.08
2022-10-04T00:24:23.643Z,12.04
2022-10-04T00:26:51.375Z,12.18
2022-10-04T00:29:33.972Z,11.98
2022-10-04T00:32:11.272Z,12.26
2022-10-04T00:34:50.056Z,11.96
2022-10-04T00:37:19.971Z,11.97
2022-10-04T00:39:58.079Z,11.99
2022-10-04T00:42:31.961Z,11.81
2022-10-04T00:45:39.670Z,11.97
2022-10-04T00:48:31.588Z,11.70
2022-10-04T00:51:16.625Z,11.93
2022-10-04T00:53:51.023Z,12.03
2022-10-04T00:56:48.925Z,11.90
2022-10-04T00:59:34.357Z,11.97
2022-10-04T01:02:22.807Z,11.99
2022-10-04T01:04:56.882Z,11.69
2022-10-04T01:07:33.861Z,12.18
2022-10-04T01:10:08.325Z,12.05
2022-10-04T01:12:46.238Z,11.83
2022-10-04T01:15:16.252Z,11.94
2022-10-04T01:18:09.507Z,11.82
2022-10-04T01:20:40.611Z,12.02
2022-10-04T01:23:10.412Z,11.91
2022-10-04T01:25:50.279Z,11.89
2022-10-04T01:28:18.202Z,11.71
2022-10-04T01:30:46.492Z,11.76
2022-10-04T01:33:14.381Z,11.50
2022-10-04T01:35:42.260Z,11.66
2022-10-04T01:38:10.735Z,11.70
2022-10-04T01:40:46.203Z,11.92
2022-10-04T01:43:19.461Z,11.94
2022-10-04T01:45:50.893Z,11.73
2022-10-04T01:48:24.393Z,11.94
2022-10-04T01:51:13.273Z,12.13
2022-10-04T01:53:46.444Z,11.90
2022-10-04T01:56:23.741Z,12.01
2022-10-04T01:59:05.133Z,12.17
2022-10-04T02:01:38.765Z,11.93
2022-10-04T02:04:22.503Z,11.71
2022-10-04T02:06:55.302Z,11.99
2022-10-04T02:09:26.922Z,12.07
2022-10-04T02:11:55.161Z,12.10
2022-10-04T02:14:26.451Z,11.91
2022-10-04T02:16:54.602Z,12.01
2022-10-04T02:19:27.624Z,12.07
2022-10-04T02:21:56.322Z,12.09
2022-10-04T02:24:24.172Z,12.23
2022-10-04T02:26:52.753Z,12.13
2022-10-04T02:29:21.284Z,11.98
2022-10-04T02:32:09.661Z,12.19
2022-10-04T02:34:38.991Z,12.47
2022-10-04T02:37:07.891Z,11.95
2022-10-04T02:39:40.633Z,12.28
2022-10-04T02:42:25.881Z,12.26
2022-10-04T02:45:00.633Z,12.23
2022-10-04T02:47:34.342Z,12.14
2022-10-04T02:50:21.694Z,12.16
2022-10-04T02:52:55.813Z,12.16
2022-10-04T02:55:28.382Z,12.43
2022-10-04T02:57:58.686Z,12.25
2022-10-04T03:00:31.924Z,12.33
2022-10-04T03:03:18.016Z,12.50
2022-10-04T03:05:53.292Z,12.35
2022-10-04T03:08:21.743Z,12.31
2022-10-04T03:10:50.962Z,12.45
2022-10-04T03:13:20.383Z,12.25
2022-10-04T03:15:50.418Z,12.11
2022-10-04T03:18:18.472Z,11.97
2022-10-04T03:20:46.501Z,12.17
2022-10-04T03:23:16.554Z,12.24
2022-10-04T03:25:59.911Z,11.98
2022-10-04T03:28:29.139Z,12.11
2022-10-04T03:30:58.297Z,11.93
2022-10-04T03:33:27.810Z,12.30
2022-10-04T03:35:58.474Z,12.09
2022-10-04T03:38:27.577Z,12.08
2022-10-04T03:40:58.551Z,12.08
2022-10-04T03:43:32.242Z,12.10
2022-10-04T03:46:01.655Z,11.82
2022-10-04T03:48:35.882Z,11.89
2022-10-04T03:51:05.823Z,11.91
2022-10-04T03:53:37.852Z,11.86
2022-10-04T03:56:33.860Z,11.83
2022-10-04T03:59:06.532Z,11.84
2022-10-04T04:01:41.677Z,11.73
2022-10-04T04:04:37.214Z,11.50
2022-10-04T04:07:28.573Z,11.66
2022-10-04T04:10:00.015Z,11.70
2022-10-04T04:12:34.384Z,11.38
2022-10-04T04:15:03.081Z,11.92
2022-10-04T04:17:37.047Z,11.81
2022-10-04T04:20:13.801Z,11.85
2022-10-04T04:22:44.483Z,11.91
2022-10-04T04:25:15.266Z,11.52
2022-10-04T04:27:44.471Z,11.48
2022-10-04T04:30:17.184Z,11.56
2022-10-04T04:32:54.454Z,11.42
2022-10-04T04:35:30.893Z,11.71
2022-10-04T04:38:21.911Z,11.44
2022-10-04T04:40:50.871Z,11.39
2022-10-04T04:43:22.345Z,11.79
2022-10-04T04:46:03.206Z,11.79
2022-10-04T04:48:38.834Z,12.05
2022-10-04T04:51:07.850Z,12.04
2022-10-04T04:53:36.423Z,12.01
2022-10-04T04:56:10.446Z,11.94
2022-10-04T04:58:43.674Z,11.76
2022-10-04T05:01:14.623Z,11.71
2022-10-04T05:03:42.845Z,12.08
2022-10-04T05:06:27.512Z,11.89
2022-10-04T05:08:55.564Z,12.01
2022-10-04T05:11:30.304Z,11.70
2022-10-04T05:14:03.367Z,12.26
2022-10-04T05:16:41.698Z,11.89
2022-10-04T05:19:23.247Z,11.91
2022-10-04T05:21:53.534Z,11.79
2022-10-04T05:24:31.063Z,12.21
2022-10-04T05:27:17.663Z,11.69
2022-10-04T05:30:20.303Z,12.01
2022-10-04T05:33:04.228Z,12.18
2022-10-04T05:35:43.247Z,12.32
2022-10-04T05:38:35.499Z,12.11
2022-10-04T05:41:18.045Z,12.23
2022-10-04T05:43:47.638Z,12.13
2022-10-04T05:46:19.393Z,12.53
2022-10-04T05:49:10.460Z,12.63
2022-10-04T05:52:13.839Z,13.01
2022-10-04T05:54:41.831Z,13.11
2022-10-04T05:58:01.352Z,13.63
2022-10-04T06:00:47.035Z,13.80
2022-10-04T06:03:26.989Z,14.32
2022-10-04T06:05:55.471Z,14.46
2022-10-04T06:08:32.011Z,14.96
2022-10-04T06:11:24.668Z,14.70
2022-10-04T06:14:24.156Z,14.56
2022-10-04T06:16:57.949Z,14.32
2022-10-04T06:19:54.967Z,14.07
2022-10-04T06:22:28.641Z,14.35
2022-10-04T06:25:06.052Z,14.72
2022-10-04T06:28:04.645Z,14.52
2022-10-04T06:30:58.757Z,14.66
2022-10-04T06:33:54.435Z,14.35
2022-10-04T06:36:22.658Z,14.21
2022-10-04T06:39:05.906Z,14.28
2022-10-04T06:42:25.566Z,14.03
2022-10-04T06:45:05.558Z,14.47
2022-10-04T06:47:45.435Z,14.51
2022-10-04T06:50:28.715Z,14.35
2022-10-04T06:53:14.436Z,14.42
2022-10-04T06:56:07.468Z,14.71
2022-10-04T06:58:48.317Z,14.79
2022-10-04T07:01:29.100Z,15.08
2022-10-04T07:04:19.319Z,14.97
2022-10-04T07:07:25.203Z,14.79
2022-10-04T07:10:09.830Z,14.72
2022-10-04T07:12:41.176Z,14.95
2022-10-04T07:15:23.997Z,15.74
2022-10-04T07:17:53.742Z,15.95
2022-10-04T07:20:32.418Z,16.21
2022-10-04T07:23:06.125Z,15.87
2022-10-04T07:25:45.217Z,15.77
2022-10-04T07:28:37.175Z,16.43
2022-10-04T07:31:11.986Z,16.61
2022-10-04T07:34:04.319Z,16.75
2022-10-04T07:36:49.260Z,16.89
2022-10-04T07:39:44.528Z,17.23
2022-10-04T07:42:15.608Z,17.66
2022-10-04T07:44:45.608Z,17.97
2022-10-04T07:47:20.551Z,18.36
2022-10-04T07:49:50.994Z,18.25
2022-10-04T07:52:48.395Z,18.65
2022-10-04T07:55:16.278Z,18.86
2022-10-04T07:57:56.318Z,18.82
2022-10-04T08:00:29.496Z,18.23
2022-10-04T08:03:27.987Z,18.50
2022-10-04T08:06:21.675Z,18.71
2022-10-04T08:08:59.074Z,18.91
2022-10-04T08:12:05.629Z,19.63
2022-10-04T08:14:53.315Z,19.72
2022-10-04T08:17:32.082Z,20.32
2022-10-04T08:20:25.607Z,20.34
2022-10-04T08:22:56.600Z,19.88
2022-10-04T08:25:33.599Z,19.20
2022-10-04T08:28:48.773Z,18.57
2022-10-04T08:31:39.511Z,17.98
2022-10-04T08:34:45.158Z,18.40
2022-10-04T08:37:17.683Z,18.30
2022-10-04T08:40:12.656Z,18.10
2022-10-04T08:42:44.299Z,18.32
2022-10-04T08:45:44.129Z,18.11
2022-10-04T08:48:24.915Z,17.84
2022-10-04T08:51:24.915Z,17.96
2022-10-04T08:54:11.725Z,17.86
2022-10-04T08:56:58.793Z,18.00
2022-10-04T09:00:06.102Z,18.07
2022-10-04T09:02:46.942Z,18.42
2022-10-04T09:05:27.262Z,18.37
2022-10-04T09:07:55.056Z,18.60
2022-10-04T09:10:42.627Z,18.35
2022-10-04T09:13:31.087Z,18.51
2022-10-04T09:16:19.573Z,18.56
2022-10-04T09:18:51.797Z,18.45
2022-10-04T09:21:47.597Z,18.21
2022-10-04T09:24:52.629Z,17.81
2022-10-04T09:27:54.684Z,17.92
2022-10-04T09:30:31.323Z,18.19
2022-10-04T09:33:11.616Z,18.89
2022-10-04T09:35:53.159Z,19.19
2022-10-04T09:38:40.962Z,19.34
2022-10-04T09:41:35.101Z,18.86
2022-10-04T09:44:34.465Z,19.10
2022-10-04T09:47:38.455Z,19.33
2022-10-04T09:50:26.831Z,20.25
2022-10-04T09:53:20.608Z,20.40
2022-10-04T09:56:01.230Z,19.97
2022-10-04T09:58:39.278Z,19.61
2022-10-04T10:01:09.235Z,18.98
2022-10-04T10:03:53.170Z,18.63
2022-10-04T10:06:41.586Z,18.70
2022-10-04T10:09:21.479Z,18.36
2022-10-04T10:12:16.677Z,18.29
2022-10-04T10:15:07.901Z,18.01
2022-10-04T10:17:51.789Z,18.05
2022-10-04T10:20:41.296Z,17.83
2022-10-04T10:23:27.662Z,17.78
2022-10-04T10:26:08.170Z,17.77
2022-10-04T10:28:58.137Z,17.70
2022-10-04T10:31:57.019Z,17.54
2022-10-04T10:35:02.860Z,17.18
2022-10-04T10:37:49.442Z,17.24
2022-10-04T10:40:49.787Z,16.86
2022-10-04T10:43:41.815Z,16.82
2022-10-04T10:46:38.234Z,16.80
2022-10-04T10:49:37.848Z,16.79
2022-10-04T10:52:37.299Z,16.67
2022-10-04T10:55:41.698Z,16.85
2022-10-04T10:58:44.643Z,17.77
2022-10-04T11:01:21.390Z,17.98
2022-10-04T11:04:21.085Z,18.52
2022-10-04T11:07:04.486Z,19.12
2022-10-04T11:09:51.460Z,19.11
2022-10-04T11:12:51.715Z,18.97
2022-10-04T11:15:41.218Z,18.77
2022-10-04T11:18:34.798Z,19.49
2022-10-04T11:21:35.341Z,19.46
2022-10-04T11:24:44.802Z,19.40
2022-10-04T11:27:30.118Z,19.07
2022-10-04T11:30:10.737Z,20.26
2022-10-04T11:32:56.976Z,20.26
2022-10-04T11:35:54.910Z,19.88
2022-10-04T11:38:49.089Z,19.74
2022-10-04T11:41:34.719Z,20.16
2022-10-04T11:44:44.265Z,20.68
2022-10-04T11:48:00.101Z,20.37
2022-10-04T11:50:45.415Z,19.60
2022-10-04T11:53:29.967Z,19.37
2022-10-04T11:56:19.567Z,19.23
2022-10-04T11:58:58.940Z,18.98
2022-10-04T12:02:04.307Z,19.01
2022-10-04T12:04:53.949Z,18.62
2022-10-04T12:07:54.737Z,19.40
2022-10-04T12:10:35.975Z,19.10
2022-10-04T12:13:06.930Z,18.85
2022-10-04T12:15:56.958Z,18.99
2022-10-04T12:18:46.437Z,19.02
2022-10-04T12:21:22.295Z,18.78
2022-10-04T12:24:17.657Z,18.42
2022-10-04T12:27:04.415Z,18.18
2022-10-04T12:30:14.918Z,17.97
2022-10-04T12:33:05.016Z,17.66
2022-10-04T12:36:08.806Z,17.22
2022-10-04T12:38:42.748Z,17.30
2022-10-04T12:41:29.297Z,17.28
2022-10-04T12:44:03.410Z,17.27
2022-10-04T12:46:40.693Z,17.59
2022-10-04T12:49:20.094Z,17.34
2022-10-04T12:52:20.570Z,17.39
2022-10-04T12:55:18.531Z,17.37
2022-10-04T12:57:54.088Z,17.49
2022-10-04T13:00:23.706Z,17.84
2022-10-04T13:03:04.485Z,17.89
2022-10-04T13:05:50.178Z,18.10
2022-10-04T13:08:32.168Z,18.50
2022-10-04T13:11:09.595Z,18.56
2022-10-04T13:14:15.145Z,18.65
2022-10-04T13:19:55.328Z,18.74
2022-10-04T13:22:56.058Z,18.99
2022-10-04T13:25:47.749Z,18.83
2022-10-04T13:29:07.025Z,18.90
2022-10-04T13:31:40.626Z,18.68
2022-10-04T13:34:55.788Z,18.94
2022-10-04T13:37:32.467Z,18.92
2022-10-04T13:40:21.615Z,19.06
2022-10-04T13:43:17.191Z,18.92
2022-10-04T13:45:51.448Z,19.01
2022-10-04T13:48:31.319Z,18.70
2022-10-04T13:51:36.959Z,18.90
2022-10-04T13:54:34.825Z,18.71
2022-10-04T13:57:24.346Z,19.00
2022-10-04T14:00:10.974Z,18.81
2022-10-04T14:02:52.523Z,18.77
2022-10-04T14:05:59.956Z,18.71
2022-10-04T14:08:48.647Z,18.97
2022-10-04T14:11:43.697Z,19.10
2022-10-04T14:14:37.397Z,19.05
2022-10-04T14:17:23.416Z,18.64
2022-10-04T14:20:25.658Z,18.67
2022-10-04T14:23:20.608Z,18.15
2022-10-04T14:26:26.601Z,18.28
2022-10-04T14:29:21.396Z,18.04
2022-10-04T14:32:33.835Z,18.22
2022-10-04T14:35:32.940Z,18.22
2022-10-04T14:38:32.814Z,18.50
2022-10-04T14:41:10.916Z,18.54
2022-10-04T14:44:12.986Z,18.37
2022-10-04T14:47:18.297Z,18.37
2022-10-04T14:49:51.326Z,17.88
2022-10-04T14:52:57.126Z,18.10
2022-10-04T14:56:04.497Z,18.29
2022-10-04T14:58:41.608Z,18.17
2022-10-04T15:01:28.552Z,17.88
2022-10-04T15:04:00.770Z,17.55
2022-10-04T15:06:59.555Z,17.34
2022-10-04T15:09:47.078Z,17.62
2022-10-04T15:13:09.332Z,17.42
2022-10-04T15:15:45.004Z,17.42
2022-10-04T15:18:41.431Z,17.20
2022-10-04T15:21:33.938Z,17.08
2022-10-04T15:24:17.398Z,17.27
2022-10-04T15:26:57.199Z,17.11
2022-10-04T15:29:51.728Z,17.33
2022-10-04T15:32:48.014Z,17.27
2022-10-04T15:35:42.406Z,16.86
2022-10-04T15:39:01.875Z,16.89
2022-10-04T15:42:25.339Z,16.86
2022-10-04T15:45:26.670Z,16.60
2022-10-04T15:48:19.250Z,16.52
2022-10-04T15:51:18.447Z,16.49
2022-10-04T15:54:05.632Z,16.40
2022-10-04T15:56:35.497Z,16.38
2022-10-04T15:59:25.215Z,16.40
2022-10-04T16:02:05.687Z,16.24
2022-10-04T16:04:55.768Z,16.32
2022-10-04T16:07:54.459Z,16.40
2022-10-04T16:10:29.031Z,16.31
2022-10-04T16:13:24.726Z,16.32
2022-10-04T16:16:26.226Z,16.12
2022-10-04T16:19:26.348Z,16.09
2022-10-04T16:22:08.356Z,16.21
2022-10-04T16:24:50.837Z,15.85
2022-10-04T16:27:38.189Z,15.64
2022-10-04T16:30:26.125Z,15.53
2022-10-04T16:32:56.948Z,15.49
2022-10-04T16:35:39.158Z,15.26
2022-10-04T16:38:13.138Z,15.13
2022-10-04T16:40:53.225Z,14.96
2022-10-04T16:43:23.887Z,14.96
2022-10-04T16:46:23.322Z,14.85
2022-10-04T16:48:56.617Z,15.03
2022-10-04T16:51:47.506Z,14.56
2022-10-04T16:55:00.397Z,14.32
2022-10-04T16:57:28.596Z,13.99
2022-10-04T17:00:01.147Z,14.12
2022-10-04T17:02:44.125Z,14.01
2022-10-04T17:05:44.540Z,13.97
2022-10-04T17:08:15.586Z,13.56
2022-10-04T17:10:52.367Z,14.22
2022-10-04T17:13:23.555Z,13.70
2022-10-04T17:15:57.826Z,13.53
2022-10-04T17:18:36.067Z,13.42
2022-10-04T17:21:33.625Z,13.44
2022-10-04T17:24:09.184Z,13.24
2022-10-04T17:26:52.572Z,13.55
2022-10-04T17:29:26.765Z,13.15
2022-10-04T17:31:59.478Z,13.30
2022-10-04T17:34:34.327Z,12.98
2022-10-04T17:37:03.583Z,13.31
2022-10-04T17:39:49.556Z,13.17
2022-10-04T17:42:29.976Z,13.53
2022-10-04T17:45:25.570Z,13.57
2022-10-04T17:48:27.958Z,12.98
2022-10-04T17:51:19.585Z,12.11
2022-10-04T17:54:12.977Z,12.07
2022-10-04T17:56:48.361Z,12.31
2022-10-04T17:59:21.066Z,12.52
2022-10-04T18:01:55.141Z,12.78
2022-10-04T18:04:30.514Z,11.90
2022-10-04T18:07:25.317Z,11.95
2022-10-04T18:09:56.712Z,11.35
2022-10-04T18:12:42.516Z,11.62
2022-10-04T18:15:26.866Z,12.37
2022-10-04T18:18:28.136Z,12.21
2022-10-04T18:21:04.798Z,11.66
2022-10-04T18:23:35.402Z,11.72
2022-10-04T18:26:10.980Z,10.40
2022-10-04T18:28:40.509Z,10.93
2022-10-04T18:31:17.922Z,10.93
2022-10-04T18:33:50.522Z,11.20
2022-10-04T18:36:25.162Z,10.59
2022-10-04T18:39:11.719Z,10.48
2022-10-04T18:41:55.078Z,11.00
2022-10-04T18:44:44.356Z,11.06
2022-10-04T18:47:38.282Z,10.99
2022-10-04T18:50:21.495Z,10.13
2022-10-04T18:53:16.530Z,10.50
2022-10-04T18:55:58.716Z,10.93
2022-10-04T18:59:04.347Z,10.87
2022-10-04T19:02:00.106Z,10.74
2022-10-04T19:04:45.868Z,10.45
2022-10-04T19:07:16.645Z,9.87
2022-10-04T19:09:59.915Z,9.87
2022-10-04T19:12:36.258Z,9.66
2022-10-04T19:15:23.148Z,10.08
2022-10-04T19:18:12.752Z,10.69
2022-10-04T19:20:47.587Z,10.59
2022-10-04T19:23:31.281Z,10.87
2022-10-04T19:26:32.932Z,10.68
2022-10-04T19:29:10.248Z,10.51
2022-10-04T19:31:49.596Z,10.33
2022-10-04T19:34:47.469Z,10.37
2022-10-04T19:37:39.319Z,9.68
2022-10-04T19:40:17.154Z,9.72
2022-10-04T19:43:07.806Z,9.68
2022-10-04T19:45:50.995Z,9.86
2022-10-04T19:48:24.669Z,9.67
2022-10-04T19:51:09.813Z,10.23
2022-10-04T19:53:49.836Z,9.85
2022-10-04T19:56:23.976Z,10.20
2022-10-04T19:59:19.138Z,10.33
2022-10-04T20:01:47.238Z,9.97
2022-10-04T20:04:35.488Z,9.79
2022-10-04T20:07:05.925Z,9.51
2022-10-04T20:09:37.022Z,9.93
2022-10-04T20:12:05.715Z,10.16
2022-10-04T20:14:33.505Z,9.83
2022-10-04T20:17:01.621Z,9.78
2022-10-04T20:19:29.423Z,9.06
2022-10-04T20:22:26.846Z,9.17
2022-10-04T20:24:56.598Z,9.41
2022-10-04T20:27:32.057Z,9.61
2022-10-04T20:30:06.019Z,9.65
2022-10-04T20:32:34.490Z,9.81
2022-10-04T20:35:10.724Z,9.61
2022-10-04T20:37:44.678Z,9.63
2022-10-04T20:40:24.946Z,9.13
2022-10-04T20:43:13.770Z,9.39
2022-10-04T20:45:46.413Z,9.79
2022-10-04T20:48:20.119Z,9.91
2022-10-04T20:50:50.056Z,9.61
2022-10-04T20:53:23.146Z,9.87
2022-10-04T20:55:54.185Z,9.72
2022-10-04T20:58:33.002Z,9.50
2022-10-04T21:01:25.655Z,9.85
2022-10-04T21:03:53.635Z,9.26
2022-10-04T21:06:21.916Z,9.37
2022-10-04T21:08:49.826Z,9.72
2022-10-04T21:11:20.809Z,9.88
2022-10-04T21:13:54.676Z,9.44
2022-10-04T21:16:40.459Z,9.50
2022-10-04T21:19:31.326Z,9.52
2022-10-04T21:22:00.556Z,9.00
2022-10-04T21:24:43.082Z,9.01
2022-10-04T21:27:12.788Z,9.44
2022-10-04T21:29:41.175Z,9.63
2022-10-04T21:32:09.027Z,9.61
2022-10-04T21:34:53.823Z,9.21
2022-10-04T21:37:22.749Z,8.83
2022-10-04T21:39:50.637Z,9.48
2022-10-04T21:42:18.655Z,9.22
2022-10-04T21:44:46.725Z,9.53
2022-10-04T21:47:14.537Z,9.52
2022-10-04T21:49:42.366Z,9.29
2022-10-04T21:52:10.501Z,9.16
2022-10-04T21:54:38.389Z,8.79
2022-10-04T21:57:06.268Z,8.58
2022-10-04T21:59:34.377Z,8.96
2022-10-04T22:02:02.313Z,8.44
2022-10-04T22:04:30.457Z,9.08
2022-10-04T22:06:58.316Z,9.48
2022-10-04T22:09:26.136Z,9.48
2022-10-04T22:11:54.206Z,9.44
2022-10-04T22:14:21.984Z,8.90
2022-10-04T22:16:50.293Z,9.04
2022-10-04T22:19:19.033Z,9.43
2022-10-04T22:21:46.806Z,9.46
2022-10-04T22:24:18.225Z,9.56
2022-10-04T22:26:46.955Z,9.59
2022-10-04T22:29:16.437Z,9.38
2022-10-04T22:31:50.837Z,8.81
2022-10-04T22:34:23.110Z,9.16
2022-10-04T22:36:53.186Z,9.17
2022-10-04T22:39:21.746Z,9.05
2022-10-04T22:41:54.398Z,9.29
2022-10-04T22:44:29.347Z,9.31
2022-10-04T22:46:59.437Z,8.96
2022-10-04T22:49:32.996Z,9.29
2022-10-04T22:52:03.055Z,9.38
2022-10-04T22:54:33.205Z,9.27
2022-10-04T22:57:01.015Z,9.19
2022-10-04T22:59:43.876Z,9.29
2022-10-04T23:02:28.550Z,9.17
2022-10-04T23:05:00.371Z,8.91
2022-10-04T23:07:28.716Z,8.87
2022-10-04T23:09:56.564Z,8.60
2022-10-04T23:12:24.346Z,8.66
2022-10-04T23:14:52.475Z,8.92
2022-10-04T23:17:30.019Z,8.92
2022-10-04T23:20:02.106Z,8.81
2022-10-04T23:22:30.831Z,8.74
2022-10-04T23:24:59.397Z,8.79
2022-10-04T23:27:27.187Z,8.64
2022-10-04T23:30:21.369Z,7.81
2022-10-04T23:32:52.665Z,8.38
2022-10-04T23:35:23.756Z,8.71
2022-10-04T23:37:51.945Z,8.76
2022-10-04T23:40:22.024Z,8.86
2022-10-04T23:42:51.505Z,8.82
2022-10-04T23:45:29.515Z,8.46
2022-10-04T23:47:59.406Z,8.55
2022-10-04T23:50:34.156Z,8.78
2022-10-04T23:53:04.926Z,8.89
2022-10-04T23:55:35.786Z,8.78
2022-10-04T23:58:17.939Z,8.38
